createdAt,value
2018-05-26T00:00:30.147Z,4.90
2018-05-26T00:02:58.417Z,4.83
2018-05-26T00:05:26.671Z,4.80
2018-05-26T00:07:55.706Z,4.93
2018-05-26T00:10:23.960Z,4.93
2018-05-26T00:12:52.231Z,5.05
2018-05-26T00:15:21.249Z,5.43
2018-05-26T00:17:49.513Z,4.93
2018-05-26T00:20:18.551Z,5.40
2018-05-26T00:22:52.240Z,5.53
2018-05-26T00:25:20.490Z,5.30
2018-05-26T00:27:49.517Z,5.07
2018-05-26T00:30:17.771Z,5.13
2018-05-26T00:32:46.803Z,5.80
2018-05-26T00:35:15.060Z,5.10
2018-05-26T00:37:43.891Z,4.78
2018-05-26T00:40:12.155Z,4.57
2018-05-26T00:42:40.579Z,4.77
2018-05-26T00:45:09.610Z,4.77
2018-05-26T00:47:38.626Z,4.33
2018-05-26T00:50:06.887Z,4.43
2018-05-26T00:52:35.914Z,5.00
2018-05-26T00:55:04.173Z,4.73
2018-05-26T00:57:32.427Z,4.87
2018-05-26T01:00:01.452Z,4.80
2018-05-26T01:02:29.717Z,5.00
2018-05-26T01:04:58.748Z,4.93
2018-05-26T01:07:26.983Z,4.93
2018-05-26T01:09:55.828Z,4.70
2018-05-26T01:12:24.077Z,4.07
2018-05-26T01:14:53.099Z,4.50
2018-05-26T01:17:21.346Z,4.97
2018-05-26T01:19:50.455Z,4.93
2018-05-26T01:22:19.716Z,4.63
2018-05-26T01:24:48.462Z,4.27
2018-05-26T01:27:16.707Z,4.67
2018-05-26T01:29:45.730Z,4.53
2018-05-26T01:32:13.984Z,4.80
2018-05-26T01:34:43.742Z,4.47
2018-05-26T01:37:12.003Z,4.20
2018-05-26T01:39:40.268Z,4.80
2018-05-26T01:42:09.285Z,4.67
2018-05-26T01:44:37.540Z,4.17
2018-05-26T01:47:06.566Z,4.72
2018-05-26T01:49:34.814Z,4.60
2018-05-26T01:52:03.832Z,4.90
2018-05-26T01:54:32.857Z,4.40
2018-05-26T01:57:01.093Z,4.77
2018-05-26T01:59:30.118Z,4.23
2018-05-26T02:01:58.362Z,4.37
2018-05-26T02:04:27.378Z,4.65
2018-05-26T02:06:56.382Z,4.50
2018-05-26T02:09:25.410Z,4.50
2018-05-26T02:11:53.667Z,4.63
2018-05-26T02:14:21.923Z,4.90
2018-05-26T02:16:51.772Z,4.80
2018-05-26T02:19:20.015Z,4.80
2018-05-26T02:21:49.033Z,4.80
2018-05-26T02:24:18.040Z,4.93
2018-05-26T02:26:46.321Z,5.00
2018-05-26T02:29:14.571Z,4.93
2018-05-26T02:31:43.594Z,4.57
2018-05-26T02:34:12.619Z,4.90
2018-05-26T02:36:40.870Z,5.33
2018-05-26T02:39:09.127Z,4.80
2018-05-26T02:41:38.148Z,4.30
2018-05-26T02:44:07.173Z,4.73
2018-05-26T02:46:35.418Z,5.20
2018-05-26T02:49:04.451Z,4.70
2018-05-26T02:51:32.690Z,4.10
2018-05-26T02:54:01.722Z,4.30
2018-05-26T02:56:29.987Z,4.63
2018-05-26T02:58:59.013Z,4.60
2018-05-26T03:01:27.262Z,4.97
2018-05-26T03:03:55.632Z,4.93
2018-05-26T03:06:30.096Z,4.93
2018-05-26T03:09:03.927Z,4.73
2018-05-26T03:11:37.805Z,4.93
2018-05-26T03:14:11.387Z,4.80
2018-05-26T03:16:41.896Z,4.97
2018-05-26T03:19:10.203Z,4.93
2018-05-26T03:21:38.454Z,4.87
2018-05-26T03:24:07.491Z,4.90
2018-05-26T03:26:35.734Z,4.90
2018-05-26T03:29:04.487Z,5.70
2018-05-26T03:31:32.732Z,5.37
2018-05-26T03:34:00.987Z,5.20
2018-05-26T03:36:30.019Z,5.40
2018-05-26T03:38:58.263Z,5.50
2018-05-26T03:41:27.280Z,4.80
2018-05-26T03:43:56.311Z,4.67
2018-05-26T03:46:24.559Z,4.33
2018-05-26T03:48:53.662Z,4.80
2018-05-26T03:51:21.943Z,4.97
2018-05-26T03:53:50.200Z,5.37
2018-05-26T03:56:37.164Z,4.90
2018-05-26T04:02:19.655Z,4.70
2018-05-26T04:04:47.919Z,4.53
2018-05-26T04:07:16.929Z,4.47
2018-05-26T04:09:45.187Z,4.53
2018-05-26T04:12:14.212Z,4.70
2018-05-26T04:14:42.467Z,5.10
2018-05-26T04:17:11.484Z,5.17
2018-05-26T04:19:39.727Z,5.67
2018-05-26T04:22:08.752Z,5.00
2018-05-26T04:24:37.770Z,5.00
2018-05-26T04:27:06.027Z,5.33
2018-05-26T04:29:35.037Z,5.10
2018-05-26T04:32:03.301Z,5.20
2018-05-26T04:34:32.315Z,4.63
2018-05-26T04:37:00.579Z,4.60
2018-05-26T04:39:29.598Z,4.87
2018-05-26T04:41:57.847Z,5.00
2018-05-26T04:44:26.869Z,5.45
2018-05-26T04:46:55.134Z,5.50
2018-05-26T04:49:25.394Z,4.30
2018-05-26T04:51:53.636Z,4.77
2018-05-26T04:54:22.661Z,4.00
2018-05-26T04:56:50.928Z,3.67
2018-05-26T04:59:19.967Z,3.67
2018-05-26T05:01:48.228Z,3.60
2018-05-26T05:04:16.490Z,3.78
2018-05-26T05:06:44.759Z,3.87
2018-05-26T05:09:13.783Z,4.63
2018-05-26T05:11:42.042Z,4.50
2018-05-26T05:14:10.298Z,5.20
2018-05-26T05:16:39.332Z,4.40
2018-05-26T05:19:07.602Z,4.75
2018-05-26T05:21:36.027Z,4.83
2018-05-26T05:24:04.283Z,4.70
2018-05-26T05:26:32.547Z,4.57
2018-05-26T05:29:01.646Z,4.73
2018-05-26T05:31:31.699Z,4.40
2018-05-26T05:33:59.961Z,4.37
2018-05-26T05:36:28.228Z,3.67
2018-05-26T05:38:57.251Z,3.80
2018-05-26T05:41:25.531Z,3.73
2018-05-26T05:43:53.806Z,3.97
2018-05-26T05:46:22.069Z,3.73
2018-05-26T05:48:51.112Z,3.73
2018-05-26T05:51:19.343Z,3.80
2018-05-26T05:53:47.631Z,3.70
2018-05-26T05:56:16.866Z,3.87
2018-05-26T05:58:45.085Z,3.50
2018-05-26T06:01:14.114Z,3.28
2018-05-26T06:03:42.386Z,3.37
2018-05-26T06:06:10.667Z,3.30
2018-05-26T06:08:39.703Z,3.23
2018-05-26T06:11:07.970Z,3.40
2018-05-26T06:13:36.230Z,3.15
2018-05-26T06:16:04.483Z,2.95
2018-05-26T06:18:33.515Z,2.70
2018-05-26T06:21:01.791Z,2.77
2018-05-26T06:23:30.366Z,3.00
2018-05-26T06:25:59.395Z,2.75
2018-05-26T06:28:27.653Z,2.87
2018-05-26T06:30:56.691Z,2.90
2018-05-26T06:33:24.955Z,2.60
2018-05-26T06:35:53.280Z,2.53
2018-05-26T06:38:21.491Z,2.80
2018-05-26T06:40:49.754Z,2.90
2018-05-26T06:43:18.788Z,2.78
2018-05-26T06:45:47.039Z,2.80
2018-05-26T06:48:16.070Z,2.73
2018-05-26T06:50:44.332Z,2.77
2018-05-26T06:53:12.595Z,2.68
2018-05-26T06:55:41.627Z,2.47
2018-05-26T06:58:09.879Z,2.55
2018-05-26T07:00:38.907Z,2.47
2018-05-26T07:03:07.178Z,2.83
2018-05-26T07:05:35.431Z,2.70
2018-05-26T07:08:04.551Z,2.42
2018-05-26T07:10:32.804Z,2.60
2018-05-26T07:13:01.837Z,2.50
2018-05-26T07:15:30.104Z,2.42
2018-05-26T07:17:59.211Z,2.57
2018-05-26T07:20:27.458Z,2.30
2018-05-26T07:22:56.482Z,2.40
2018-05-26T07:25:24.762Z,2.47
2018-05-26T07:27:53.057Z,2.50
2018-05-26T07:30:22.052Z,2.20
2018-05-26T07:32:50.422Z,2.40
2018-05-26T07:35:19.443Z,2.47
2018-05-26T07:37:47.700Z,2.70
2018-05-26T07:40:15.971Z,2.67
2018-05-26T07:42:44.983Z,2.60
2018-05-26T07:45:13.255Z,2.30
2018-05-26T07:47:42.275Z,2.40
2018-05-26T07:50:10.535Z,2.60
2018-05-26T07:52:38.804Z,2.47
2018-05-26T07:55:07.814Z,2.60
2018-05-26T07:57:36.099Z,2.40
2018-05-26T08:00:05.888Z,2.22
2018-05-26T08:02:34.103Z,2.17
2018-05-26T08:05:02.362Z,2.17
2018-05-26T08:07:31.396Z,2.33
2018-05-26T08:09:59.656Z,2.40
2018-05-26T08:12:27.931Z,2.47
2018-05-26T08:14:56.203Z,2.50
2018-05-26T08:17:25.259Z,2.40
2018-05-26T08:19:53.507Z,2.27
2018-05-26T08:22:21.773Z,2.60
2018-05-26T08:24:50.876Z,2.17
2018-05-26T08:27:19.150Z,2.40
2018-05-26T08:29:48.179Z,2.23
2018-05-26T08:32:16.631Z,2.18
2018-05-26T08:34:44.900Z,1.92
2018-05-26T08:37:13.923Z,2.20
2018-05-26T08:39:42.191Z,2.13
2018-05-26T08:42:11.208Z,2.10
2018-05-26T08:44:39.474Z,2.50
2018-05-26T08:47:08.496Z,2.30
2018-05-26T08:49:36.777Z,2.70
2018-05-26T08:52:05.048Z,3.05
2018-05-26T08:54:33.315Z,2.65
2018-05-26T08:57:01.608Z,3.37
2018-05-26T08:59:29.873Z,3.40
2018-05-26T09:01:58.975Z,3.40
2018-05-26T09:04:27.255Z,3.20
2018-05-26T09:06:55.506Z,3.22
2018-05-26T09:09:24.535Z,3.10
2018-05-26T09:11:52.786Z,2.80
2018-05-26T09:14:21.824Z,3.00
2018-05-26T09:16:50.087Z,2.80
2018-05-26T09:19:19.114Z,2.33
2018-05-26T09:21:47.386Z,2.47
2018-05-26T09:24:15.857Z,2.40
2018-05-26T09:26:44.108Z,4.35
2018-05-26T09:29:13.135Z,2.75
2018-05-26T09:31:41.398Z,2.37
2018-05-26T09:34:10.431Z,2.28
2018-05-26T09:36:39.547Z,2.40
2018-05-26T09:39:07.811Z,2.72
2018-05-26T09:41:36.090Z,2.20
2018-05-26T09:44:04.346Z,2.10
2018-05-26T09:46:33.375Z,2.55
2018-05-26T09:49:01.640Z,2.50
2018-05-26T09:51:29.908Z,2.40
2018-05-26T09:53:58.174Z,2.50
2018-05-26T09:56:27.216Z,2.50
2018-05-26T09:58:55.457Z,2.30
2018-05-26T10:01:24.477Z,2.35
2018-05-26T10:06:51.871Z,2.50
2018-05-26T10:09:20.225Z,2.17
2018-05-26T10:11:48.477Z,2.58
2018-05-26T10:14:17.511Z,2.63
2018-05-26T10:16:45.772Z,2.50
2018-05-26T10:19:14.811Z,2.40
2018-05-26T10:21:43.071Z,2.70
2018-05-26T10:24:11.386Z,2.40
2018-05-26T10:26:39.634Z,2.83
2018-05-26T10:29:07.898Z,2.55
2018-05-26T10:31:36.163Z,2.28
2018-05-26T10:34:05.191Z,2.53
2018-05-26T10:36:33.435Z,2.43
2018-05-26T10:39:08.396Z,2.62
2018-05-26T10:41:36.652Z,2.60
2018-05-26T10:44:05.697Z,2.08
2018-05-26T10:46:33.960Z,2.07
2018-05-26T10:49:02.219Z,2.60
2018-05-26T10:51:31.243Z,2.50
2018-05-26T10:53:59.504Z,2.28
2018-05-26T10:56:27.756Z,2.30
2018-05-26T10:58:56.788Z,2.43
2018-05-26T11:01:25.059Z,2.27
2018-05-26T11:03:54.369Z,2.22
2018-05-26T11:06:22.623Z,2.20
2018-05-26T11:08:51.657Z,2.57
2018-05-26T11:11:19.919Z,2.17
2018-05-26T11:13:48.943Z,2.20
2018-05-26T11:16:17.223Z,2.20
2018-05-26T11:18:45.469Z,2.20
2018-05-26T11:21:14.503Z,2.40
2018-05-26T11:23:42.765Z,2.20
2018-05-26T11:26:11.073Z,2.30
2018-05-26T11:28:39.294Z,2.35
2018-05-26T11:31:08.367Z,2.67
2018-05-26T11:33:36.596Z,2.65
2018-05-26T11:36:04.863Z,2.37
2018-05-26T11:38:33.886Z,2.30
2018-05-26T11:41:02.146Z,2.30
2018-05-26T11:43:31.177Z,2.40
2018-05-26T11:45:59.430Z,2.17
2018-05-26T11:48:27.690Z,1.90
2018-05-26T11:50:56.733Z,2.27
2018-05-26T11:53:25.007Z,2.08
2018-05-26T11:55:54.002Z,1.92
2018-05-26T11:58:22.274Z,2.05
2018-05-26T12:00:50.544Z,2.12
2018-05-26T12:03:19.551Z,2.20
2018-05-26T12:05:47.824Z,2.00
2018-05-26T12:08:17.034Z,2.30
2018-05-26T12:10:45.328Z,2.40
2018-05-26T12:13:14.325Z,2.30
2018-05-26T12:15:42.587Z,2.10
2018-05-26T12:18:12.326Z,2.12
2018-05-26T12:20:40.590Z,2.10
2018-05-26T12:23:08.843Z,2.33
2018-05-26T12:25:37.880Z,2.27
2018-05-26T12:28:06.150Z,2.10
2018-05-26T12:30:35.242Z,2.12
2018-05-26T12:33:03.514Z,2.28
2018-05-26T12:35:32.558Z,2.10
2018-05-26T12:38:00.818Z,2.30
2018-05-26T12:40:29.078Z,2.20
2018-05-26T12:42:57.338Z,2.20
2018-05-26T12:45:26.374Z,1.90
2018-05-26T12:47:54.618Z,2.20
2018-05-26T12:50:23.654Z,2.10
2018-05-26T12:52:51.912Z,2.00
2018-05-26T12:55:20.954Z,2.27
2018-05-26T12:57:49.194Z,2.20
2018-05-26T13:00:17.490Z,2.10
2018-05-26T13:02:45.750Z,2.33
2018-05-26T13:05:14.877Z,2.20
2018-05-26T13:07:43.135Z,2.37
2018-05-26T13:10:12.163Z,2.30
2018-05-26T13:12:42.798Z,2.22
2018-05-26T13:15:11.050Z,2.65
2018-05-26T13:17:40.089Z,2.37
2018-05-26T13:20:08.344Z,2.30
2018-05-26T13:22:36.616Z,2.47
2018-05-26T13:25:04.875Z,2.55
2018-05-26T13:27:33.911Z,2.70
2018-05-26T13:30:02.180Z,2.83
2018-05-26T13:32:30.425Z,3.12
2018-05-26T13:34:59.465Z,3.03
2018-05-26T13:37:27.732Z,3.15
2018-05-26T13:39:56.736Z,3.40
2018-05-26T13:42:25.002Z,3.35
2018-05-26T13:44:54.033Z,3.35
2018-05-26T13:47:22.296Z,2.97
2018-05-26T13:49:50.553Z,3.00
2018-05-26T13:52:19.701Z,3.40
2018-05-26T13:54:47.976Z,3.28
2018-05-26T13:57:16.958Z,3.60
2018-05-26T13:59:45.219Z,3.77
2018-05-26T14:02:14.248Z,3.83
2018-05-26T14:04:42.503Z,4.00
2018-05-26T14:07:10.799Z,3.40
2018-05-26T14:09:39.043Z,3.22
2018-05-26T14:12:08.070Z,3.60
2018-05-26T14:14:36.962Z,3.40
2018-05-26T14:17:06.178Z,3.90
2018-05-26T14:19:34.440Z,3.30
2018-05-26T14:22:02.713Z,3.60
2018-05-26T14:24:32.549Z,3.50
2018-05-26T14:27:00.813Z,3.50
2018-05-26T14:29:29.112Z,3.40
2018-05-26T14:31:57.389Z,3.50
2018-05-26T14:34:25.641Z,3.87
2018-05-26T14:36:54.760Z,3.47
2018-05-26T14:39:23.038Z,4.00
2018-05-26T14:41:51.312Z,3.08
2018-05-26T14:44:20.330Z,3.43
2018-05-26T14:46:48.596Z,3.37
2018-05-26T14:49:18.209Z,3.64
2018-05-26T14:51:46.475Z,4.30
2018-05-26T14:54:15.501Z,4.07
2018-05-26T14:56:43.771Z,4.62
2018-05-26T14:59:12.043Z,3.87
2018-05-26T15:01:41.148Z,3.83
2018-05-26T15:04:09.416Z,4.30
2018-05-26T15:06:38.447Z,4.10
2018-05-26T15:09:06.705Z,3.50
2018-05-26T15:11:34.958Z,4.32
2018-05-26T15:14:04.000Z,3.60
2018-05-26T15:16:32.258Z,3.73
2018-05-26T15:19:00.528Z,3.97
2018-05-26T15:21:30.254Z,4.16
2018-05-26T15:23:59.291Z,4.10
2018-05-26T15:26:27.550Z,4.07
2018-05-26T15:28:55.814Z,4.07
2018-05-26T15:31:24.863Z,3.87
2018-05-26T15:33:53.119Z,5.78
2018-05-26T15:36:21.366Z,6.18
2018-05-26T15:38:50.404Z,7.27
2018-05-26T15:41:18.656Z,3.70
2018-05-26T15:43:46.924Z,3.60
2018-05-26T15:46:15.947Z,12.70
2018-05-26T15:48:44.213Z,19.70
2018-05-26T15:51:12.481Z,12.20
2018-05-26T15:53:41.518Z,22.25
2018-05-26T15:56:09.775Z,16.20
2018-05-26T15:58:38.063Z,12.80
2018-05-26T16:01:06.306Z,8.00
2018-05-26T16:03:35.347Z,5.57
2018-05-26T16:06:03.611Z,5.00
2018-05-26T16:08:31.879Z,4.03
2018-05-26T16:11:00.902Z,7.10
2018-05-26T16:13:29.174Z,4.00
2018-05-26T16:15:57.447Z,5.55
2018-05-26T16:18:26.479Z,3.80
2018-05-26T16:20:54.732Z,3.97
2018-05-26T16:23:23.134Z,4.03
2018-05-26T16:25:51.409Z,3.35
2018-05-26T16:28:19.660Z,3.20
2018-05-26T16:30:48.694Z,2.90
2018-05-26T16:33:16.961Z,2.90
2018-05-26T16:35:45.224Z,2.60
2018-05-26T16:38:14.250Z,2.70
2018-05-26T16:40:42.502Z,2.53
2018-05-26T16:43:11.607Z,3.85
2018-05-26T16:45:39.854Z,3.40
2018-05-26T16:48:08.124Z,2.80
2018-05-26T16:50:36.375Z,2.57
2018-05-26T16:53:04.645Z,2.27
2018-05-26T16:55:34.906Z,2.78
2018-05-26T16:58:03.171Z,2.55
2018-05-26T17:00:31.415Z,3.00
2018-05-26T17:02:59.690Z,3.30
2018-05-26T17:05:28.713Z,2.20
2018-05-26T17:07:56.975Z,2.20
2018-05-26T17:10:25.278Z,2.20
2018-05-26T17:12:53.541Z,2.50
2018-05-26T17:15:21.817Z,2.37
2018-05-26T17:17:50.070Z,2.45
2018-05-26T17:20:19.327Z,2.40
2018-05-26T17:22:47.625Z,2.47
2018-05-26T17:25:15.883Z,2.22
2018-05-26T17:27:44.268Z,2.30
2018-05-26T17:30:12.523Z,2.00
2018-05-26T17:32:40.788Z,2.25
2018-05-26T17:35:09.820Z,2.10
2018-05-26T17:37:38.071Z,2.10
2018-05-26T17:40:07.123Z,2.10
2018-05-26T17:42:35.393Z,3.20
2018-05-26T17:45:03.651Z,3.10
2018-05-26T17:47:31.903Z,3.20
2018-05-26T17:50:00.934Z,2.47
2018-05-26T17:52:29.187Z,2.37
2018-05-26T17:54:58.301Z,2.30
2018-05-26T17:57:26.555Z,2.28
2018-05-26T17:59:55.604Z,2.37
2018-05-26T18:02:23.870Z,2.05
2018-05-26T18:04:52.131Z,2.30
2018-05-26T18:07:21.165Z,2.20
2018-05-26T18:09:50.220Z,2.50
2018-05-26T18:12:19.250Z,2.20
2018-05-26T18:14:47.527Z,2.60
2018-05-26T18:17:15.818Z,2.30
2018-05-26T18:19:44.066Z,2.20
2018-05-26T18:22:13.085Z,2.42
2018-05-26T18:24:41.353Z,2.50
2018-05-26T18:27:10.376Z,2.40
2018-05-26T18:29:38.644Z,2.42
2018-05-26T18:32:06.905Z,2.45
2018-05-26T18:34:35.935Z,2.60
2018-05-26T18:37:04.186Z,2.70
2018-05-26T18:39:33.294Z,2.57
2018-05-26T18:42:01.758Z,2.50
2018-05-26T18:44:30.788Z,2.45
2018-05-26T18:46:59.039Z,2.63
2018-05-26T18:49:28.062Z,2.77
2018-05-26T18:51:56.315Z,2.70
2018-05-26T18:54:25.358Z,2.90
2018-05-26T18:56:53.615Z,3.30
2018-05-26T18:59:21.867Z,2.70
2018-05-26T19:01:51.646Z,2.78
2018-05-26T19:04:19.909Z,2.83
2018-05-26T19:06:48.184Z,2.90
2018-05-26T19:09:16.452Z,3.00
2018-05-26T19:11:44.720Z,2.78
2018-05-26T19:14:13.643Z,2.98
2018-05-26T19:16:41.928Z,3.12
2018-05-26T19:19:10.199Z,3.10
2018-05-26T19:21:38.462Z,3.13
2018-05-26T19:24:07.491Z,2.97
2018-05-26T19:26:35.768Z,3.30
2018-05-26T19:29:04.023Z,3.00
2018-05-26T19:31:32.288Z,3.08
2018-05-26T19:34:01.316Z,3.33
2018-05-26T19:36:29.591Z,3.53
2018-05-26T19:38:58.309Z,3.17
2018-05-26T19:41:26.566Z,3.17
2018-05-26T19:43:54.836Z,3.30
2018-05-26T19:46:23.102Z,3.47
2018-05-26T19:48:52.121Z,3.60
2018-05-26T19:51:20.381Z,3.40
2018-05-26T19:53:49.496Z,3.60
2018-05-26T19:56:17.819Z,3.50
2018-05-26T19:58:46.074Z,3.30
2018-05-26T20:01:14.335Z,3.80
2018-05-26T20:03:42.619Z,3.80
2018-05-26T20:06:10.894Z,3.70
2018-05-26T20:08:39.150Z,3.63
2018-05-26T20:11:08.480Z,3.62
2018-05-26T20:13:36.735Z,3.47
2018-05-26T20:16:05.759Z,4.20
2018-05-26T20:18:34.027Z,3.80
2018-05-26T20:21:03.059Z,3.73
2018-05-26T20:23:31.314Z,4.50
2018-05-26T20:25:59.599Z,4.30
2018-05-26T20:28:27.851Z,4.23
2018-05-26T20:30:56.882Z,4.53
2018-05-26T20:33:25.136Z,4.60
2018-05-26T20:35:54.175Z,4.60
2018-05-26T20:38:22.427Z,5.07
2018-05-26T20:40:51.459Z,3.90
2018-05-26T20:43:19.728Z,4.20
2018-05-26T20:45:47.991Z,4.10
2018-05-26T20:48:17.007Z,4.10
2018-05-26T20:50:45.286Z,4.50
2018-05-26T20:53:13.545Z,4.30
2018-05-26T20:55:42.646Z,4.40
2018-05-26T20:58:11.675Z,4.57
2018-05-26T21:00:40.063Z,4.80
2018-05-26T21:03:08.328Z,4.20
2018-05-26T21:05:36.703Z,4.40
2018-05-26T21:08:04.968Z,4.03
2018-05-26T21:10:33.992Z,4.33
2018-05-26T21:13:02.254Z,4.57
2018-05-26T21:15:30.535Z,4.67
2018-05-26T21:17:58.793Z,4.30
2018-05-26T21:20:27.830Z,4.27
2018-05-26T21:22:56.091Z,4.60
2018-05-26T21:25:25.117Z,4.60
2018-05-26T21:27:53.441Z,4.50
2018-05-26T21:30:21.642Z,4.70
2018-05-26T21:32:50.672Z,4.77
2018-05-26T21:35:18.919Z,4.60
2018-05-26T21:37:48.028Z,4.97
2018-05-26T21:40:17.135Z,4.67
2018-05-26T21:42:45.401Z,5.03
2018-05-26T21:45:14.422Z,5.00
2018-05-26T21:47:42.723Z,5.15
2018-05-26T21:50:11.703Z,5.20
2018-05-26T21:52:39.966Z,4.93
2018-05-26T21:55:08.224Z,4.97
2018-05-26T21:57:37.260Z,5.07
2018-05-26T22:00:05.520Z,4.87
2018-05-26T22:02:34.553Z,4.80
2018-05-26T22:05:02.799Z,5.33
2018-05-26T22:07:31.830Z,4.90
2018-05-26T22:10:00.099Z,4.80
2018-05-26T22:12:28.363Z,5.32
2018-05-26T22:14:58.091Z,5.45
2018-05-26T22:17:26.361Z,5.00
2018-05-26T22:19:54.610Z,5.53
2018-05-26T22:22:23.643Z,5.87
2018-05-26T22:24:51.909Z,5.83
2018-05-26T22:27:20.941Z,5.73
2018-05-26T22:29:49.192Z,5.33
2018-05-26T22:32:18.410Z,4.90
2018-05-26T22:34:46.686Z,4.82
2018-05-26T22:37:14.944Z,5.20
2018-05-26T22:39:43.975Z,5.10
2018-05-26T22:42:12.244Z,4.93
2018-05-26T22:44:40.511Z,4.87
2018-05-26T22:47:09.416Z,4.87
2018-05-26T22:49:38.443Z,4.70
2018-05-26T22:52:06.696Z,4.57
2018-05-26T22:54:34.964Z,4.97
2018-05-26T22:57:04.072Z,5.13
2018-05-26T22:59:32.354Z,5.30
2018-05-26T23:02:00.604Z,5.17
2018-05-26T23:04:29.640Z,5.00
2018-05-26T23:06:57.906Z,5.20
2018-05-26T23:09:26.934Z,5.00
2018-05-26T23:11:55.293Z,5.70
2018-05-26T23:14:23.563Z,5.70
2018-05-26T23:16:52.586Z,5.43
2018-05-26T23:19:21.408Z,5.68
2018-05-26T23:21:49.665Z,5.27
2018-05-26T23:24:17.938Z,6.03
2018-05-26T23:26:46.190Z,5.00
2018-05-26T23:29:15.214Z,5.67
2018-05-26T23:31:43.477Z,5.63
2018-05-26T23:34:11.747Z,6.07
2018-05-26T23:36:40.776Z,6.50
2018-05-26T23:39:09.037Z,5.90
2018-05-26T23:41:38.059Z,6.00
2018-05-26T23:44:06.323Z,5.80
2018-05-26T23:46:34.590Z,5.60
2018-05-26T23:49:03.615Z,6.10
2018-05-26T23:51:31.883Z,5.97
2018-05-26T23:54:00.145Z,6.30
2018-05-26T23:56:29.430Z,6.27
2018-05-26T23:58:58.450Z,6.83
